Fruita, Colorado
Current Conditions -  °F | °C
As of 4:53 PM on Sunday 23 Nov 2014 (Local Time) from KGJT Reporting Station
Clear Clear  
Wind Chill: 26°   Ceiling: Unl
Heat Index: 35°   Visibility: 10mi
Dew Point: 18°   Wind: 13mph
Humidity: 50%   Direction: 310°NW
Pressure: 30.04"   Gusts: NA
Location:  39.16°N, 108.73°W
Report Text: KGJT 232353Z 31011KT 10SM CLR 02/M08 A3004 RMK AO2 SLP178 T00171078 10061 20017 53013
Loading
Personal Weather Stations






























Interactive Weather Map New forecast layout! Learn more

10-Day Weather Forecast

Advertisements
Track Severe Weather on mobile